createdAt,value
2018-06-11T00:02:19.354Z,99.90
2018-06-11T00:05:22.973Z,99.90
2018-06-11T00:08:26.610Z,99.90
2018-06-11T00:11:30.217Z,99.90
2018-06-11T00:14:33.850Z,99.90
2018-06-11T00:20:41.101Z,99.90
2018-06-11T00:23:44.737Z,99.90
2018-06-11T00:26:48.382Z,99.90
2018-06-11T00:29:52.003Z,99.90
2018-06-11T00:32:55.720Z,99.90
2018-06-11T00:35:59.510Z,99.90
2018-06-11T00:39:03.466Z,99.90
2018-06-11T00:42:07.110Z,99.90
2018-06-11T00:45:10.742Z,99.90
2018-06-11T00:48:14.351Z,99.90
2018-06-11T00:51:18.257Z,99.90
2018-06-11T00:54:21.857Z,99.90
2018-06-11T00:57:25.508Z,99.90
2018-06-11T01:00:29.961Z,99.90
2018-06-11T01:06:37.082Z,99.90
2018-06-11T01:09:40.710Z,99.90
2018-06-11T01:12:44.390Z,99.90
2018-06-11T01:15:48.021Z,99.90
2018-06-11T01:18:51.630Z,99.90
2018-06-11T01:21:55.346Z,99.90
2018-06-11T01:24:58.977Z,99.90
2018-06-11T01:28:03.038Z,99.90
2018-06-11T01:31:06.691Z,99.90
2018-06-11T01:34:10.318Z,99.90
2018-06-11T01:37:14.217Z,99.90
2018-06-11T01:40:17.850Z,99.90
2018-06-11T01:43:21.526Z,99.90
2018-06-11T01:46:25.164Z,99.90
2018-06-11T01:49:28.825Z,99.90
2018-06-11T01:52:32.538Z,99.90
2018-06-11T01:55:36.153Z,99.90
2018-06-11T01:58:39.786Z,99.90
2018-06-11T02:04:46.861Z,99.90
2018-06-11T02:07:50.478Z,99.90
2018-06-11T02:10:54.090Z,99.90
2018-06-11T02:17:01.501Z,99.90
2018-06-11T02:23:08.457Z,99.90
2018-06-11T02:26:12.260Z,99.90
2018-06-11T02:29:15.882Z,99.90
2018-06-11T02:32:19.957Z,99.90
2018-06-11T02:35:23.585Z,99.90
2018-06-11T02:38:27.453Z,99.90
2018-06-11T02:41:31.302Z,99.90
2018-06-11T02:44:34.949Z,99.90
2018-06-11T02:47:38.590Z,99.90
2018-06-11T02:50:42.299Z,99.90
2018-06-11T02:53:46.010Z,99.90
2018-06-11T02:56:49.615Z,99.90
2018-06-11T02:59:53.314Z,99.90
2018-06-11T03:02:56.919Z,99.90
2018-06-11T03:06:00.722Z,99.90
2018-06-11T03:09:06.581Z,99.90
2018-06-11T03:12:10.224Z,99.90
2018-06-11T03:18:17.222Z,99.90
2018-06-11T03:21:20.797Z,99.90
2018-06-11T03:24:24.435Z,99.90
2018-06-11T03:27:28.074Z,99.90
2018-06-11T03:30:31.766Z,99.90
2018-06-11T03:33:35.458Z,99.90
2018-06-11T03:36:39.089Z,99.90
2018-06-11T03:39:42.789Z,99.90
2018-06-11T03:42:46.522Z,99.90
2018-06-11T03:45:50.147Z,99.90
2018-06-11T03:51:57.225Z,99.90
2018-06-11T03:55:00.838Z,99.90
2018-06-11T03:58:04.497Z,99.90
2018-06-11T04:01:08.193Z,99.90
2018-06-11T04:04:12.315Z,99.90
2018-06-11T04:07:16.127Z,99.90
2018-06-11T04:10:19.737Z,99.90
2018-06-11T04:13:23.362Z,99.90
2018-06-11T04:16:27.040Z,99.90
2018-06-11T04:19:30.685Z,99.90
2018-06-11T04:22:34.273Z,99.90
2018-06-11T04:25:37.943Z,99.90
2018-06-11T04:28:41.559Z,99.90
2018-06-11T04:31:45.250Z,99.90
2018-06-11T04:34:48.857Z,99.90
2018-06-11T04:37:52.491Z,99.90
2018-06-11T04:40:56.349Z,99.90
2018-06-11T04:44:00.225Z,99.90
2018-06-11T04:47:03.888Z,99.90
2018-06-11T04:50:07.514Z,99.90
2018-06-11T04:56:14.517Z,99.90
2018-06-11T05:03:50.857Z,99.90
2018-06-11T05:06:54.474Z,99.90
2018-06-11T05:09:58.182Z,99.90
2018-06-11T05:13:01.952Z,99.90
2018-06-11T05:16:05.582Z,99.90
2018-06-11T05:19:09.232Z,99.90
2018-06-11T05:22:12.880Z,99.90
2018-06-11T05:25:16.495Z,99.90
2018-06-11T05:28:20.125Z,99.90
2018-06-11T05:34:27.156Z,99.90
2018-06-11T05:37:30.809Z,99.90
2018-06-11T05:40:34.493Z,99.90
2018-06-11T05:43:38.094Z,99.90
2018-06-11T05:46:41.749Z,99.90
2018-06-11T05:49:45.449Z,99.90
2018-06-11T05:55:52.394Z,99.90
2018-06-11T05:58:56.052Z,99.90
2018-06-11T06:01:59.637Z,99.90
2018-06-11T06:05:03.278Z,99.90
2018-06-11T06:08:06.905Z,99.90
2018-06-11T06:11:10.628Z,99.90
2018-06-11T06:14:14.285Z,99.90
2018-06-11T06:17:17.850Z,99.90
2018-06-11T06:20:21.450Z,99.90
2018-06-11T06:23:25.072Z,99.90
2018-06-11T06:26:28.690Z,99.90
2018-06-11T06:29:32.354Z,99.90
2018-06-11T06:32:35.971Z,99.90
2018-06-11T06:38:43.075Z,99.90
2018-06-11T06:41:46.880Z,99.90
2018-06-11T06:44:50.465Z,99.90
2018-06-11T06:47:54.188Z,99.90
2018-06-11T06:50:57.770Z,99.90
2018-06-11T06:54:01.410Z,99.90
2018-06-11T06:57:05.032Z,99.90
2018-06-11T07:00:08.674Z,99.90
2018-06-11T07:03:12.310Z,99.90
2018-06-11T07:06:15.938Z,99.90
2018-06-11T07:09:19.548Z,99.90
2018-06-11T07:12:23.177Z,99.90
2018-06-11T07:15:26.782Z,99.90
2018-06-11T07:18:30.421Z,99.90
2018-06-11T07:21:34.047Z,99.90
2018-06-11T07:24:37.678Z,99.90
2018-06-11T07:27:41.307Z,99.90
2018-06-11T07:33:48.558Z,99.90
2018-06-11T07:36:52.322Z,99.90
2018-06-11T07:39:55.973Z,99.90
2018-06-11T07:42:59.731Z,99.90
2018-06-11T07:46:03.318Z,99.90
2018-06-11T07:49:06.986Z,99.90
2018-06-11T07:52:10.591Z,99.90
2018-06-11T07:55:14.221Z,99.90
2018-06-11T07:58:17.837Z,99.90
2018-06-11T08:04:25.046Z,99.90
2018-06-11T08:07:28.666Z,99.90
2018-06-11T08:10:32.282Z,99.90
2018-06-11T08:13:36.028Z,99.90
2018-06-11T08:16:39.545Z,99.90
2018-06-11T08:22:46.593Z,99.30
2018-06-11T08:25:50.235Z,99.30
2018-06-11T08:28:53.844Z,98.50
2018-06-11T08:31:57.472Z,97.50
2018-06-11T08:35:01.103Z,97.30
2018-06-11T08:43:25.779Z,99.40
2018-06-11T08:49:32.818Z,97.60
2018-06-11T08:52:36.432Z,97.40
2018-06-11T08:55:40.084Z,97.10
2018-06-11T08:58:43.686Z,97.20
2018-06-11T09:04:50.675Z,97.10
2018-06-11T09:07:54.302Z,97.80
2018-06-11T09:10:57.932Z,97.40
2018-06-11T09:14:01.581Z,97.60
2018-06-11T09:17:05.202Z,97.50
2018-06-11T09:20:08.837Z,98.20
2018-06-11T09:23:12.437Z,98.70
2018-06-11T09:26:16.065Z,99.20
2018-06-11T09:29:19.700Z,98.80
2018-06-11T09:35:26.741Z,98.80
2018-06-11T09:38:30.407Z,99.30
2018-06-11T09:41:34.012Z,98.60
2018-06-11T09:47:41.112Z,98.50
2018-06-11T09:50:44.713Z,99.10
2018-06-11T09:53:48.350Z,99.50
2018-06-11T09:56:52.051Z,99.10
2018-06-11T10:00:06.615Z,98.60
2018-06-11T10:03:10.237Z,98.60
2018-06-11T10:06:13.886Z,98.40
2018-06-11T10:12:20.945Z,99.40
2018-06-11T10:15:24.543Z,98.80
2018-06-11T10:18:28.150Z,98.30
2018-06-11T10:21:31.890Z,97.60
2018-06-11T10:24:35.630Z,97.20
2018-06-11T10:27:39.246Z,97.20
2018-06-11T10:30:42.846Z,97.10
2018-06-11T10:33:46.468Z,96.90
2018-06-11T10:36:50.074Z,97.40
2018-06-11T10:39:53.713Z,97.20
2018-06-11T10:46:01.001Z,95.40
2018-06-11T10:52:08.008Z,94.50
2018-06-11T10:58:15.162Z,95.70
2018-06-11T11:01:18.820Z,95.60
2018-06-11T11:07:25.861Z,93.90
2018-06-11T11:10:29.475Z,93.50
2018-06-11T11:13:33.095Z,93.90
2018-06-11T11:16:36.730Z,92.70
2018-06-11T11:19:40.359Z,92.40
2018-06-11T11:22:44.016Z,92.70
2018-06-11T11:28:50.990Z,93.90
2018-06-11T11:31:54.598Z,93.90
2018-06-11T11:34:58.241Z,94.20
2018-06-11T11:38:01.839Z,94.20
2018-06-11T11:41:05.470Z,93.70
2018-06-11T11:44:09.218Z,92.60
2018-06-11T11:47:13.181Z,92.40
2018-06-11T11:50:16.824Z,92.50
2018-06-11T11:53:20.442Z,92.30
2018-06-11T11:59:27.432Z,92.30
2018-06-11T12:02:31.077Z,91.70
2018-06-11T12:05:34.685Z,92.00
2018-06-11T12:08:38.358Z,92.30
2018-06-11T12:11:41.966Z,93.00
2018-06-11T12:14:45.705Z,93.70
2018-06-11T12:17:49.318Z,93.30
2018-06-11T12:20:52.958Z,92.70
2018-06-11T12:26:59.973Z,92.60
2018-06-11T12:30:03.585Z,91.70
2018-06-11T12:33:07.269Z,91.50
2018-06-11T12:36:10.842Z,91.70
2018-06-11T12:39:14.530Z,92.10
2018-06-11T12:42:18.140Z,92.40
2018-06-11T12:45:21.758Z,93.20
2018-06-11T12:48:25.439Z,92.80
2018-06-11T13:35:46.219Z,91.60
2018-06-11T13:38:50.101Z,87.40
2018-06-11T13:41:53.734Z,86.30
2018-06-11T13:44:57.363Z,87.00
2018-06-11T13:48:00.982Z,85.90
2018-06-11T13:51:04.859Z,85.40
2018-06-11T13:54:08.514Z,85.10
2018-06-11T13:57:12.137Z,82.00
2018-06-11T14:00:16.483Z,82.70
2018-06-11T14:03:20.236Z,84.50
2018-06-11T14:06:23.865Z,82.80
2018-06-11T14:09:27.491Z,81.40
2018-06-11T14:15:34.474Z,81.30
2018-06-11T14:18:38.114Z,79.80
2018-06-11T14:21:41.758Z,81.50
2018-06-11T14:24:45.373Z,80.30
2018-06-11T14:27:49.001Z,80.20
2018-06-11T14:33:56.015Z,81.70
2018-06-11T14:36:59.627Z,80.90
2018-06-11T14:40:03.262Z,81.40
2018-06-11T14:43:06.857Z,81.50
2018-06-11T14:46:10.487Z,78.90
2018-06-11T14:49:14.106Z,79.20
2018-06-11T14:52:17.740Z,79.50
2018-06-11T14:55:21.346Z,79.60
2018-06-11T14:58:25.017Z,78.50
2018-06-11T15:01:28.617Z,79.00
2018-06-11T15:07:35.580Z,80.10
2018-06-11T15:10:39.197Z,81.30
2018-06-11T15:13:42.829Z,80.20
2018-06-11T15:16:46.463Z,79.80
2018-06-11T15:19:50.083Z,79.40
2018-06-11T15:22:53.738Z,78.70
2018-06-11T15:25:57.354Z,79.20
2018-06-11T15:29:00.973Z,79.40
2018-06-11T15:32:04.581Z,79.20
2018-06-11T15:35:08.198Z,80.80
2018-06-11T15:38:11.841Z,81.20
2018-06-11T15:41:15.445Z,82.90
2018-06-11T15:44:19.218Z,81.80
2018-06-11T15:47:22.841Z,79.80
2018-06-11T15:50:26.546Z,79.00
2018-06-11T15:53:30.262Z,80.00
2018-06-11T15:56:33.886Z,77.50
2018-06-11T15:59:37.490Z,76.90
2018-06-11T16:02:41.105Z,77.80
2018-06-11T16:05:44.726Z,78.70
2018-06-11T16:08:48.346Z,79.90
2018-06-11T16:11:51.949Z,80.60
2018-06-11T16:17:58.903Z,77.10
2018-06-11T16:21:02.616Z,76.30
2018-06-11T16:24:06.226Z,76.40
2018-06-11T16:27:09.865Z,76.20
2018-06-11T16:33:16.830Z,78.60
2018-06-11T16:36:20.517Z,79.80
2018-06-11T16:39:24.141Z,80.10
2018-06-11T16:42:27.828Z,80.00
2018-06-11T16:45:31.445Z,80.20
2018-06-11T16:48:35.076Z,79.60
2018-06-11T16:51:38.677Z,79.50
2018-06-11T16:57:45.650Z,81.40
2018-06-11T17:00:49.774Z,82.20
2018-06-11T17:03:53.439Z,80.90
2018-06-11T17:06:57.062Z,81.00
2018-06-11T17:10:00.696Z,81.60
2018-06-11T17:13:04.412Z,82.30
2018-06-11T17:19:11.557Z,82.40
2018-06-11T17:22:15.197Z,83.80
2018-06-11T17:25:18.814Z,84.30
2018-06-11T17:28:22.450Z,83.40
2018-06-11T17:31:26.086Z,83.80
2018-06-11T17:34:29.711Z,83.00
2018-06-11T17:37:33.350Z,83.20
2018-06-11T17:40:36.970Z,83.70
2018-06-11T17:43:40.621Z,83.60
2018-06-11T17:46:44.210Z,84.80
2018-06-11T17:49:47.829Z,84.00
2018-06-11T17:52:51.475Z,84.70
2018-06-11T17:55:55.131Z,85.00
2018-06-11T17:58:58.757Z,84.40
2018-06-11T18:05:05.730Z,84.60
2018-06-11T18:11:12.686Z,84.20
2018-06-11T18:14:16.313Z,85.50
2018-06-11T18:17:20.314Z,85.30
2018-06-11T18:20:23.966Z,84.70
2018-06-11T18:23:27.683Z,85.10
2018-06-11T18:26:31.326Z,84.80
2018-06-11T18:29:34.970Z,85.30
2018-06-11T18:32:38.582Z,84.70
2018-06-11T18:35:42.201Z,85.10
2018-06-11T18:38:46.166Z,85.50
2018-06-11T18:41:49.798Z,85.60
2018-06-11T18:44:53.427Z,85.80
2018-06-11T18:47:57.306Z,86.00
2018-06-11T18:51:01.020Z,85.80
2018-06-11T18:54:04.683Z,86.50
2018-06-11T18:57:08.325Z,85.30
2018-06-11T19:00:13.119Z,85.70
2018-06-11T19:03:16.826Z,86.20
2018-06-11T19:06:20.440Z,87.70
2018-06-11T19:09:24.277Z,87.00
2018-06-11T19:12:27.893Z,87.60
2018-06-11T19:15:31.551Z,88.10
2018-06-11T19:18:35.150Z,88.30
2018-06-11T19:21:38.828Z,88.50
2018-06-11T19:24:42.443Z,88.90
2018-06-11T19:27:46.104Z,89.90
2018-06-11T19:30:49.899Z,90.00
2018-06-11T19:33:53.558Z,90.30
2018-06-11T19:36:57.187Z,90.50
2018-06-11T19:40:00.828Z,90.90
2018-06-11T19:43:04.722Z,90.70
2018-06-11T19:46:08.612Z,90.90
2018-06-11T19:49:12.223Z,91.20
2018-06-11T19:52:15.875Z,91.40
2018-06-11T19:58:23.038Z,91.40
2018-06-11T20:01:26.633Z,91.50
2018-06-11T20:04:30.262Z,91.90
2018-06-11T20:07:33.888Z,91.80
2018-06-11T20:13:40.871Z,92.10
2018-06-11T20:16:44.546Z,92.80
2018-06-11T20:19:48.174Z,92.70
2018-06-11T20:22:51.862Z,92.60
2018-06-11T20:25:55.649Z,92.70
2018-06-11T20:28:59.260Z,92.80
2018-06-11T20:32:02.909Z,93.00
2018-06-11T20:38:09.880Z,93.10
2018-06-11T20:41:13.486Z,93.50
2018-06-11T20:44:17.135Z,93.50
2018-06-11T20:47:20.757Z,93.60
2018-06-11T20:50:24.458Z,93.70
2018-06-11T20:53:28.153Z,93.80
2018-06-11T20:56:31.800Z,93.50
2018-06-11T20:59:35.528Z,93.70
2018-06-11T21:02:39.150Z,93.90
2018-06-11T21:05:42.775Z,93.90
2018-06-11T21:08:46.381Z,93.90
2018-06-11T21:11:49.994Z,94.10
2018-06-11T21:14:53.644Z,94.20
2018-06-11T21:17:57.277Z,94.20
2018-06-11T21:21:00.940Z,94.10
2018-06-11T21:24:04.560Z,94.10
2018-06-11T21:27:08.154Z,94.10
2018-06-11T21:30:11.907Z,94.20
2018-06-11T21:33:15.513Z,94.20
2018-06-11T21:36:19.139Z,94.50
2018-06-11T21:39:22.758Z,94.60
2018-06-11T21:45:29.722Z,95.10
2018-06-11T21:48:33.323Z,95.10
2018-06-11T21:51:36.943Z,95.10
2018-06-11T21:54:40.601Z,95.10
2018-06-11T21:57:44.222Z,94.90
2018-06-11T22:00:47.845Z,94.50
2018-06-11T22:03:51.534Z,94.50
2018-06-11T22:07:58.242Z,94.70
2018-06-11T22:14:05.406Z,94.50
2018-06-11T22:17:09.030Z,94.70
2018-06-11T22:20:12.676Z,94.80
2018-06-11T22:23:16.300Z,95.00
2018-06-11T22:26:19.919Z,95.20
2018-06-11T22:29:23.542Z,95.60
2018-06-11T22:32:57.865Z,95.80
2018-06-11T22:36:01.465Z,96.00
2018-06-11T22:39:07.210Z,96.30
2018-06-11T22:42:10.817Z,96.40
2018-06-11T22:45:14.447Z,96.60
2018-06-11T22:48:18.073Z,96.80
2018-06-11T22:51:21.679Z,96.90
2018-06-11T22:54:25.310Z,97.10
2018-06-11T22:57:28.939Z,97.30
2018-06-11T23:00:33.547Z,97.40
2018-06-11T23:03:37.153Z,97.60
2018-06-11T23:06:40.930Z,97.60
2018-06-11T23:09:44.542Z,97.70
2018-06-11T23:12:48.237Z,97.80
2018-06-11T23:15:51.841Z,98.00
2018-06-11T23:18:55.489Z,98.20
2018-06-11T23:21:59.059Z,98.20
2018-06-11T23:25:02.691Z,98.20
2018-06-11T23:31:09.642Z,98.50
2018-06-11T23:34:13.294Z,98.80
2018-06-11T23:37:16.891Z,99.00
2018-06-11T23:43:24.086Z,99.20
2018-06-11T23:46:27.686Z,99.30
2018-06-11T23:49:31.300Z,99.30
2018-06-11T23:55:38.555Z,99.50
2018-06-11T23:58:42.208Z,99.40
